Air Resources Laboratory banner image
Air Resources Laboratory web site National Oceanic and Atmospheric Administration (NOAA)

nv metar


KBAM 201555Z AUTO 00000KT 10SM CLR M10/M15 A3022 RMK AO1=
KDRA 201556Z AUTO 11008KT 10SM CLR 08/M16 A3013 RMK AO2 SLP191 T00831161=
KEKO 201556Z AUTO 09004KT 10SM CLR M12/M17 A3026 RMK AO2 SLP304 T11171172=
KELY 201553Z AUTO 16009KT 10SM CLR M08/M20 A3025 RMK AO2 SLP288 T10781200=
KHTH 201555Z AUTO 00000KT 9SM CLR M01/M07 A3018 RMK A01=
KINS 201558Z AUTO 27003KT 10SM CLR 00/M18 A3014 RMK AO2 SLP207 T00021180 $=
KLAS 201556Z 20004KT 10SM SCT150 BKN200 10/M09 A3013 RMK AO2 SLP199 VIRGA NW
 T01001089=
KLOL 201553Z AUTO 12004KT 10SM CLR M09/M13 A3020 RMK AO2 SLP263 T10891133=
KLSV 201558Z AUTO 00000KT 10SM FEW220 05/M13 A3013 RMK AO2 SLPNO T00451129 $=
KNFL 201556Z 00000KT 10SM FEW200 M05/M08 A3019 RMK AO2 SLP187 T10501083=
KP68 201553Z AUTO 00000KT M08/M19 A3022 RMK AO1 SLP278 T10831194=
KRNO 201555Z 00000KT 10SM CLR M04/M09 A3018 RMK AO2 SLP232 HZ E-SE T10391089=
KTPH 201556Z AUTO 01005KT 10SM CLR M02/M23 A3020 RMK AO2 SLP242 T10221228=
KVGT 201553Z 00000KT 10SM CLR 09/M12 A3014 RMK AO2 SLP223 T00891122=
KWMC 201556Z AUTO 07009KT 10SM CLR M04/M12 A3019 RMK AO2 SLP257 T10441117=